Observations for NEWCASTLE, United Kingdom (EGNT)

EGNT 211750Z 17010KT 130V210 9999 BKN009 00/00 Q1001
EGNT 211720Z 18009G20KT 140V210 9999 BKN010 00/00 Q1001 
EGNT 211650Z 17011G21KT 130V210 9999 BKN010 00/00 Q1002 R25/6502//  
EGNT 211620Z 16007KT 120V210 9999 BKN010 00/00 Q1002 R25/6502// 
EGNT 211550Z 15011KT 100V210 3000 -SN OVC003 00/00 Q1002 R25/5907// 
EGNT 211520Z 15005KT 090V190 1100 R25/0800 -SN OVC004 00/00 Q1005 R25/590793
EGNT 211450Z 16006KT 120V200 0900 R25/0700 -SN OVC004 00/00 Q1005 R25/590195
EGNT 211420Z 17006G16KT 120V200 1500 SN BKN007 01/M00 Q1006 
EGNT 211350Z 17007KT 120V210 7000 -SN BKN012 01/M00 Q1006   
EGNT 211320Z 17008KT 110V200 8000 -SHSN SCT012 BKN045 01/M00 Q1006  
EGNT 211250Z 16005KT 120V210 9999 FEW016 01/M01 Q1007   
EGNT 211220Z 16005KT 130V190 CAVOK 01/M02 Q1008 
EGNT 211150Z 14004KT 110V180 CAVOK 01/M02 Q1009 
EGNT 211120Z VRB03KT CAVOK 01/M03 Q1009 
EGNT 211050Z VRB03KT CAVOK 00/M03 Q1010 
EGNT 211020Z VRB01KT CAVOK 00/M04 Q1010 
EGNT 210950Z VRB03KT CAVOK M00/M04 Q1010
EGNT 210920Z VRB02KT CAVOK M01/M04 Q1010
EGNT 210850Z 00000KT CAVOK M02/M03 Q1010
EGNT 210820Z 18001KT CAVOK M02/M04 Q1010
EGNT 210750Z 18001KT CAVOK M02/M04 Q1011
EGNT 210720Z 20001KT CAVOK M02/M04 Q1011
EGNT 210650Z 00000KT CAVOK M02/M03 Q1011
EGNT 210620Z 22001KT CAVOK M02/M03 Q1011
EGNT 210550Z VRB01KT CAVOK M02/M03 Q1011
EGNT 210520Z 25002KT CAVOK M02/M03 Q1011
EGNT 210450Z 24002KT CAVOK M02/M03 Q1012
EGNT 210350Z 23004KT CAVOK M02/M03 Q1011
EGNT 210250Z 24004KT CAVOK M02/M04 Q1011
EGNT 210220Z 25003KT CAVOK M02/M04 Q1011
EGNT 210150Z 27003KT CAVOK M01/M04 Q1011
EGNT 210120Z 28005KT CAVOK M01/M04 Q1010
EGNT 210050Z 27005KT CAVOK M01/M04 Q1010
EGNT 210020Z 25005KT CAVOK M02/M04 Q1010
EGNT 202350Z 25006KT CAVOK M02/M04 Q1010
EGNT 202320Z 24005KT CAVOK M02/M03 Q1009
EGNT 202250Z 26005KT CAVOK M01/M03 Q1009
EGNT 202220Z 27005KT CAVOK M02/M03 Q1008
EGNT 202150Z 24004KT CAVOK M02/M03 Q1008
EGNT 202120Z 24004KT 200V270 CAVOK M02/M04 Q1007
EGNT 202050Z 28007KT CAVOK M01/M03 Q1007
EGNT 202020Z 28007KT CAVOK M01/M03 Q1006
EGNT 201950Z 30006KT CAVOK M01/M03 Q1006
EGNT 201920Z 30005KT CAVOK M01/M03 Q1005
EGNT 201850Z 31005KT CAVOK M01/M03 Q1005
EGNT 201820Z 30006KT CAVOK M01/M03 Q1004
EGNT 201750Z 29006KT 9999 FEW015 M01/M03 Q1003  
EGNT 201720Z 29007KT 9999 FEW015 M00/M03 Q1003